sensor_id;sensor_type;location;lat;lon;timestamp;temperature;humidity
30399;DHT22;17195;50.838;7.214;2024-02-16T00:00:15;12.80;99.90
30399;DHT22;17195;50.838;7.214;2024-02-16T00:02:44;12.80;99.90
30399;DHT22;17195;50.838;7.214;2024-02-16T00:05:11;12.80;99.90
30399;DHT22;17195;50.838;7.214;2024-02-16T00:07:40;12.70;99.90
30399;DHT22;17195;50.838;7.214;2024-02-16T00:10:06;12.70;99.90
30399;DHT22;17195;50.838;7.214;2024-02-16T00:12:33;12.60;99.90
30399;DHT22;17195;50.838;7.214;2024-02-16T00:15:00;12.60;99.90
30399;DHT22;17195;50.838;7.214;2024-02-16T00:17:26;12.70;99.90
30399;DHT22;17195;50.838;7.214;2024-02-16T00:19:55;12.70;99.90
30399;DHT22;17195;50.838;7.214;2024-02-16T00:22:21;12.70;99.90
30399;DHT22;17195;50.838;7.214;2024-02-16T00:24:46;12.70;99.90
30399;DHT22;17195;50.838;7.214;2024-02-16T00:27:12;12.70;99.90
30399;DHT22;17195;50.838;7.214;2024-02-16T00:29:39;12.80;99.90
30399;DHT22;17195;50.838;7.214;2024-02-16T00:32:05;12.80;99.90
30399;DHT22;17195;50.838;7.214;2024-02-16T00:34:35;12.80;99.90
30399;DHT22;17195;50.838;7.214;2024-02-16T00:37:01;12.70;99.90
30399;DHT22;17195;50.838;7.214;2024-02-16T00:39:27;12.70;99.90
30399;DHT22;17195;50.838;7.214;2024-02-16T00:41:52;12.70;99.90
30399;DHT22;17195;50.838;7.214;2024-02-16T00:44:18;12.70;99.90
30399;DHT22;17195;50.838;7.214;2024-02-16T00:46:44;12.80;99.90
30399;DHT22;17195;50.838;7.214;2024-02-16T00:49:09;12.80;99.90
30399;DHT22;17195;50.838;7.214;2024-02-16T00:51:38;12.70;99.90
30399;DHT22;17195;50.838;7.214;2024-02-16T00:54:04;12.70;99.90
30399;DHT22;17195;50.838;7.214;2024-02-16T00:56:30;12.70;99.90
30399;DHT22;17195;50.838;7.214;2024-02-16T00:58:56;12.70;99.90
30399;DHT22;17195;50.838;7.214;2024-02-16T01:01:22;12.60;99.90
30399;DHT22;17195;50.838;7.214;2024-02-16T01:03:48;12.70;99.90
30399;DHT22;17195;50.838;7.214;2024-02-16T01:06:14;12.70;99.90
30399;DHT22;17195;50.838;7.214;2024-02-16T01:08:40;12.70;99.90
30399;DHT22;17195;50.838;7.214;2024-02-16T01:11:06;12.80;99.90
30399;DHT22;17195;50.838;7.214;2024-02-16T01:13:33;12.80;99.90
30399;DHT22;17195;50.838;7.214;2024-02-16T01:15:58;12.80;99.90
30399;DHT22;17195;50.838;7.214;2024-02-16T01:18:25;12.80;99.90
30399;DHT22;17195;50.838;7.214;2024-02-16T01:20:51;12.70;99.90
30399;DHT22;17195;50.838;7.214;2024-02-16T01:23:17;12.80;99.90
30399;DHT22;17195;50.838;7.214;2024-02-16T01:25:42;12.80;99.90
30399;DHT22;17195;50.838;7.214;2024-02-16T01:28:08;12.80;99.90
30399;DHT22;17195;50.838;7.214;2024-02-16T01:30:33;12.80;99.90
30399;DHT22;17195;50.838;7.214;2024-02-16T01:32:59;12.80;99.90
30399;DHT22;17195;50.838;7.214;2024-02-16T01:35:24;12.80;99.90
30399;DHT22;17195;50.838;7.214;2024-02-16T01:37:50;12.80;99.90
30399;DHT22;17195;50.838;7.214;2024-02-16T01:40:15;12.80;99.90
30399;DHT22;17195;50.838;7.214;2024-02-16T01:42:47;12.80;99.90
30399;DHT22;17195;50.838;7.214;2024-02-16T01:45:13;12.80;99.90
30399;DHT22;17195;50.838;7.214;2024-02-16T01:47:39;12.80;99.90
30399;DHT22;17195;50.838;7.214;2024-02-16T01:50:05;12.80;99.90
30399;DHT22;17195;50.838;7.214;2024-02-16T01:52:31;12.80;99.90
30399;DHT22;17195;50.838;7.214;2024-02-16T01:54:59;12.90;99.90
30399;DHT22;17195;50.838;7.214;2024-02-16T01:57:26;12.90;99.90
30399;DHT22;17195;50.838;7.214;2024-02-16T01:59:52;12.90;99.90
30399;DHT22;17195;50.838;7.214;2024-02-16T02:02:19;12.90;99.90
30399;DHT22;17195;50.838;7.214;2024-02-16T02:04:44;12.90;99.90
30399;DHT22;17195;50.838;7.214;2024-02-16T02:07:14;12.90;99.90
30399;DHT22;17195;50.838;7.214;2024-02-16T02:09:40;12.80;99.90
30399;DHT22;17195;50.838;7.214;2024-02-16T02:12:05;12.90;99.90
30399;DHT22;17195;50.838;7.214;2024-02-16T02:14:31;12.90;99.90
30399;DHT22;17195;50.838;7.214;2024-02-16T02:16:57;12.90;99.90
30399;DHT22;17195;50.838;7.214;2024-02-16T02:19:22;12.90;99.90
30399;DHT22;17195;50.838;7.214;2024-02-16T02:21:48;12.90;99.90
30399;DHT22;17195;50.838;7.214;2024-02-16T02:24:13;12.80;99.90
30399;DHT22;17195;50.838;7.214;2024-02-16T02:26:39;12.80;99.90
30399;DHT22;17195;50.838;7.214;2024-02-16T02:29:05;12.70;99.90
30399;DHT22;17195;50.838;7.214;2024-02-16T02:31:30;12.60;99.90
30399;DHT22;17195;50.838;7.214;2024-02-16T02:33:56;12.60;99.90
30399;DHT22;17195;50.838;7.214;2024-02-16T02:36:21;12.60;99.90
30399;DHT22;17195;50.838;7.214;2024-02-16T02:38:47;12.60;99.90
30399;DHT22;17195;50.838;7.214;2024-02-16T02:41:13;12.50;99.90
30399;DHT22;17195;50.838;7.214;2024-02-16T02:43:41;12.50;99.90
30399;DHT22;17195;50.838;7.214;2024-02-16T02:46:07;12.30;99.90
30399;DHT22;17195;50.838;7.214;2024-02-16T02:48:32;12.30;99.90
30399;DHT22;17195;50.838;7.214;2024-02-16T02:50:58;12.30;99.90
30399;DHT22;17195;50.838;7.214;2024-02-16T02:53:28;12.30;99.90
30399;DHT22;17195;50.838;7.214;2024-02-16T02:55:53;12.20;99.90
30399;DHT22;17195;50.838;7.214;2024-02-16T02:58:19;12.20;99.90
30399;DHT22;17195;50.838;7.214;2024-02-16T03:00:44;12.20;99.90
30399;DHT22;17195;50.838;7.214;2024-02-16T03:03:10;12.10;99.90
30399;DHT22;17195;50.838;7.214;2024-02-16T03:05:36;12.20;99.90
30399;DHT22;17195;50.838;7.214;2024-02-16T03:08:01;12.10;99.90
30399;DHT22;17195;50.838;7.214;2024-02-16T03:10:28;12.10;99.90
30399;DHT22;17195;50.838;7.214;2024-02-16T03:13:00;12.10;99.90
30399;DHT22;17195;50.838;7.214;2024-02-16T03:15:25;12.10;99.90
30399;DHT22;17195;50.838;7.214;2024-02-16T03:17:51;12.10;99.90
30399;DHT22;17195;50.838;7.214;2024-02-16T03:20:16;12.20;99.90
30399;DHT22;17195;50.838;7.214;2024-02-16T03:22:42;12.20;99.90
30399;DHT22;17195;50.838;7.214;2024-02-16T03:25:08;12.20;99.90
30399;DHT22;17195;50.838;7.214;2024-02-16T03:27:34;12.30;99.90
30399;DHT22;17195;50.838;7.214;2024-02-16T03:29:59;12.20;99.90
30399;DHT22;17195;50.838;7.214;2024-02-16T03:32:25;12.20;99.90
30399;DHT22;17195;50.838;7.214;2024-02-16T03:34:51;12.30;99.90
30399;DHT22;17195;50.838;7.214;2024-02-16T03:37:16;12.30;99.90
30399;DHT22;17195;50.838;7.214;2024-02-16T03:39:42;12.30;99.90
30399;DHT22;17195;50.838;7.214;2024-02-16T03:42:08;12.30;99.90
30399;DHT22;17195;50.838;7.214;2024-02-16T03:44:35;12.40;99.90
30399;DHT22;17195;50.838;7.214;2024-02-16T03:47:00;12.50;99.90
30399;DHT22;17195;50.838;7.214;2024-02-16T03:49:26;12.60;99.90
30399;DHT22;17195;50.838;7.214;2024-02-16T03:51:54;12.60;99.90
30399;DHT22;17195;50.838;7.214;2024-02-16T03:54:20;12.50;99.90
30399;DHT22;17195;50.838;7.214;2024-02-16T03:56:45;12.40;99.90
30399;DHT22;17195;50.838;7.214;2024-02-16T03:59:11;12.40;99.90
30399;DHT22;17195;50.838;7.214;2024-02-16T04:01:36;12.40;99.90
30399;DHT22;17195;50.838;7.214;2024-02-16T04:04:02;12.40;99.90
30399;DHT22;17195;50.838;7.214;2024-02-16T04:06:28;12.30;99.90
30399;DHT22;17195;50.838;7.214;2024-02-16T04:08:54;12.40;99.90
30399;DHT22;17195;50.838;7.214;2024-02-16T04:11:21;12.30;99.90
30399;DHT22;17195;50.838;7.214;2024-02-16T04:13:47;12.40;99.90
30399;DHT22;17195;50.838;7.214;2024-02-16T04:16:12;12.40;99.90
30399;DHT22;17195;50.838;7.214;2024-02-16T04:18:38;12.40;99.90
30399;DHT22;17195;50.838;7.214;2024-02-16T04:21:04;12.40;99.90
30399;DHT22;17195;50.838;7.214;2024-02-16T04:23:29;12.30;99.90
30399;DHT22;17195;50.838;7.214;2024-02-16T04:25:55;12.30;99.90
30399;DHT22;17195;50.838;7.214;2024-02-16T04:28:21;12.30;99.90
30399;DHT22;17195;50.838;7.214;2024-02-16T04:30:46;12.30;99.90
30399;DHT22;17195;50.838;7.214;2024-02-16T04:33:12;12.30;99.90
30399;DHT22;17195;50.838;7.214;2024-02-16T04:35:38;12.40;99.90
30399;DHT22;17195;50.838;7.214;2024-02-16T04:38:03;12.40;99.90
30399;DHT22;17195;50.838;7.214;2024-02-16T04:40:35;12.30;99.90
30399;DHT22;17195;50.838;7.214;2024-02-16T04:43:01;12.30;99.90
30399;DHT22;17195;50.838;7.214;2024-02-16T04:45:27;12.50;99.90
30399;DHT22;17195;50.838;7.214;2024-02-16T04:47:55;12.50;99.90
30399;DHT22;17195;50.838;7.214;2024-02-16T04:50:21;12.50;99.90
30399;DHT22;17195;50.838;7.214;2024-02-16T04:52:46;12.40;99.90
30399;DHT22;17195;50.838;7.214;2024-02-16T04:55:12;12.40;99.90
30399;DHT22;17195;50.838;7.214;2024-02-16T04:57:38;12.30;99.90
30399;DHT22;17195;50.838;7.214;2024-02-16T05:00:04;12.30;99.90
30399;DHT22;17195;50.838;7.214;2024-02-16T05:02:29;12.30;99.90
30399;DHT22;17195;50.838;7.214;2024-02-16T05:04:55;12.30;99.90
30399;DHT22;17195;50.838;7.214;2024-02-16T05:07:21;12.40;99.90
30399;DHT22;17195;50.838;7.214;2024-02-16T05:09:46;12.30;99.90
30399;DHT22;17195;50.838;7.214;2024-02-16T05:12:12;12.30;99.90
30399;DHT22;17195;50.838;7.214;2024-02-16T05:14:37;12.20;99.90
30399;DHT22;17195;50.838;7.214;2024-02-16T05:17:03;12.30;99.90
30399;DHT22;17195;50.838;7.214;2024-02-16T05:19:32;12.40;99.90
30399;DHT22;17195;50.838;7.214;2024-02-16T05:21:58;12.40;99.90
30399;DHT22;17195;50.838;7.214;2024-02-16T05:24:23;12.40;99.90
30399;DHT22;17195;50.838;7.214;2024-02-16T05:26:49;12.40;99.90
30399;DHT22;17195;50.838;7.214;2024-02-16T05:29:16;12.40;99.90
30399;DHT22;17195;50.838;7.214;2024-02-16T05:31:42;12.50;99.90
30399;DHT22;17195;50.838;7.214;2024-02-16T05:34:08;12.50;99.90
30399;DHT22;17195;50.838;7.214;2024-02-16T05:36:33;12.50;99.90
30399;DHT22;17195;50.838;7.214;2024-02-16T05:39:01;12.50;99.90
30399;DHT22;17195;50.838;7.214;2024-02-16T05:41:35;12.50;99.90
30399;DHT22;17195;50.838;7.214;2024-02-16T05:44:02;12.50;99.90
30399;DHT22;17195;50.838;7.214;2024-02-16T05:46:28;12.60;99.90
30399;DHT22;17195;50.838;7.214;2024-02-16T05:48:53;12.60;99.90
30399;DHT22;17195;50.838;7.214;2024-02-16T05:51:19;12.60;99.90
30399;DHT22;17195;50.838;7.214;2024-02-16T05:53:45;12.60;99.90
30399;DHT22;17195;50.838;7.214;2024-02-16T05:56:12;12.60;99.90
30399;DHT22;17195;50.838;7.214;2024-02-16T05:58:38;12.60;99.90
30399;DHT22;17195;50.838;7.214;2024-02-16T06:01:03;12.70;99.90
30399;DHT22;17195;50.838;7.214;2024-02-16T06:03:29;12.70;99.90
30399;DHT22;17195;50.838;7.214;2024-02-16T06:05:54;12.70;99.90
30399;DHT22;17195;50.838;7.214;2024-02-16T06:08:20;12.70;99.90
30399;DHT22;17195;50.838;7.214;2024-02-16T06:10:45;12.70;99.90
30399;DHT22;17195;50.838;7.214;2024-02-16T06:13:19;12.70;99.90
30399;DHT22;17195;50.838;7.214;2024-02-16T06:15:46;12.70;99.90
30399;DHT22;17195;50.838;7.214;2024-02-16T06:18:12;12.70;99.90
30399;DHT22;17195;50.838;7.214;2024-02-16T06:20:37;12.70;99.90
30399;DHT22;17195;50.838;7.214;2024-02-16T06:23:03;12.80;99.90
30399;DHT22;17195;50.838;7.214;2024-02-16T06:25:29;12.80;99.90
30399;DHT22;17195;50.838;7.214;2024-02-16T06:27:54;12.80;99.90
30399;DHT22;17195;50.838;7.214;2024-02-16T06:30:20;12.90;99.90
30399;DHT22;17195;50.838;7.214;2024-02-16T06:32:45;12.90;99.90
30399;DHT22;17195;50.838;7.214;2024-02-16T06:35:11;13.00;99.90
30399;DHT22;17195;50.838;7.214;2024-02-16T06:37:37;13.00;99.90
30399;DHT22;17195;50.838;7.214;2024-02-16T06:40:04;13.00;99.90
30399;DHT22;17195;50.838;7.214;2024-02-16T06:42:31;13.00;99.90
30399;DHT22;17195;50.838;7.214;2024-02-16T06:44:56;13.10;99.90
30399;DHT22;17195;50.838;7.214;2024-02-16T06:47:22;13.10;99.90
30399;DHT22;17195;50.838;7.214;2024-02-16T06:49:50;13.20;99.90
30399;DHT22;17195;50.838;7.214;2024-02-16T06:52:16;13.20;99.90
30399;DHT22;17195;50.838;7.214;2024-02-16T06:54:41;13.20;99.90
30399;DHT22;17195;50.838;7.214;2024-02-16T06:57:07;13.20;99.90
30399;DHT22;17195;50.838;7.214;2024-02-16T06:59:32;13.20;99.90
30399;DHT22;17195;50.838;7.214;2024-02-16T07:01:58;13.20;99.90
30399;DHT22;17195;50.838;7.214;2024-02-16T07:04:23;13.20;99.90
30399;DHT22;17195;50.838;7.214;2024-02-16T07:06:49;13.30;99.90
30399;DHT22;17195;50.838;7.214;2024-02-16T07:09:14;13.30;99.90
30399;DHT22;17195;50.838;7.214;2024-02-16T07:11:40;13.30;99.90
30399;DHT22;17195;50.838;7.214;2024-02-16T07:14:06;13.30;99.90
30399;DHT22;17195;50.838;7.214;2024-02-16T07:16:33;13.40;99.90
30399;DHT22;17195;50.838;7.214;2024-02-16T07:18:59;13.40;99.90
30399;DHT22;17195;50.838;7.214;2024-02-16T07:21:24;13.40;99.90
30399;DHT22;17195;50.838;7.214;2024-02-16T07:23:52;13.40;99.90
30399;DHT22;17195;50.838;7.214;2024-02-16T07:26:17;13.50;99.90
30399;DHT22;17195;50.838;7.214;2024-02-16T07:28:43;13.50;99.90
30399;DHT22;17195;50.838;7.214;2024-02-16T07:31:08;13.50;99.90
30399;DHT22;17195;50.838;7.214;2024-02-16T07:33:36;13.50;99.90
30399;DHT22;17195;50.838;7.214;2024-02-16T07:36:02;13.60;99.90
30399;DHT22;17195;50.838;7.214;2024-02-16T07:38:27;13.60;99.90
30399;DHT22;17195;50.838;7.214;2024-02-16T07:40:54;13.70;99.90
30399;DHT22;17195;50.838;7.214;2024-02-16T07:43:19;13.70;99.90
30399;DHT22;17195;50.838;7.214;2024-02-16T07:45:45;13.70;99.90
30399;DHT22;17195;50.838;7.214;2024-02-16T07:48:10;13.70;99.90
30399;DHT22;17195;50.838;7.214;2024-02-16T07:50:36;13.70;99.90
30399;DHT22;17195;50.838;7.214;2024-02-16T07:53:01;13.80;99.90
30399;DHT22;17195;50.838;7.214;2024-02-16T07:55:27;13.80;99.90
30399;DHT22;17195;50.838;7.214;2024-02-16T07:57:53;13.80;99.90
30399;DHT22;17195;50.838;7.214;2024-02-16T08:00:19;13.80;99.90
30399;DHT22;17195;50.838;7.214;2024-02-16T08:02:45;13.90;99.90
30399;DHT22;17195;50.838;7.214;2024-02-16T08:05:11;13.90;99.90
30399;DHT22;17195;50.838;7.214;2024-02-16T08:07:41;13.90;99.90
30399;DHT22;17195;50.838;7.214;2024-02-16T08:10:10;13.90;99.90
30399;DHT22;17195;50.838;7.214;2024-02-16T08:12:36;14.00;99.90
30399;DHT22;17195;50.838;7.214;2024-02-16T08:15:03;14.00;99.90
30399;DHT22;17195;50.838;7.214;2024-02-16T08:17:29;14.00;99.90
30399;DHT22;17195;50.838;7.214;2024-02-16T08:19:55;14.10;99.90
30399;DHT22;17195;50.838;7.214;2024-02-16T08:22:21;14.00;99.90
30399;DHT22;17195;50.838;7.214;2024-02-16T08:24:47;14.10;99.90
30399;DHT22;17195;50.838;7.214;2024-02-16T08:27:15;14.10;99.90
30399;DHT22;17195;50.838;7.214;2024-02-16T08:29:41;14.20;99.90
30399;DHT22;17195;50.838;7.214;2024-02-16T08:32:08;14.10;99.90
30399;DHT22;17195;50.838;7.214;2024-02-16T08:34:34;14.10;99.90
30399;DHT22;17195;50.838;7.214;2024-02-16T08:37:03;14.10;99.90
30399;DHT22;17195;50.838;7.214;2024-02-16T08:39:29;14.20;99.90
30399;DHT22;17195;50.838;7.214;2024-02-16T08:41:56;14.30;99.90
30399;DHT22;17195;50.838;7.214;2024-02-16T08:44:21;14.30;99.90
30399;DHT22;17195;50.838;7.214;2024-02-16T08:46:47;14.40;99.90
30399;DHT22;17195;50.838;7.214;2024-02-16T08:49:15;14.40;99.90
30399;DHT22;17195;50.838;7.214;2024-02-16T08:51:40;14.50;99.90
30399;DHT22;17195;50.838;7.214;2024-02-16T08:54:06;14.60;99.90
30399;DHT22;17195;50.838;7.214;2024-02-16T08:56:32;14.60;99.90
30399;DHT22;17195;50.838;7.214;2024-02-16T08:59:03;14.70;99.90
30399;DHT22;17195;50.838;7.214;2024-02-16T09:01:32;14.80;99.90
30399;DHT22;17195;50.838;7.214;2024-02-16T09:03:58;14.90;99.90
30399;DHT22;17195;50.838;7.214;2024-02-16T09:06:24;15.00;99.90
30399;DHT22;17195;50.838;7.214;2024-02-16T09:08:50;15.10;99.90
30399;DHT22;17195;50.838;7.214;2024-02-16T09:11:15;15.10;99.90
30399;DHT22;17195;50.838;7.214;2024-02-16T09:13:42;15.10;99.90
30399;DHT22;17195;50.838;7.214;2024-02-16T09:16:08;15.10;99.90
30399;DHT22;17195;50.838;7.214;2024-02-16T09:18:33;15.20;99.90
30399;DHT22;17195;50.838;7.214;2024-02-16T09:20:59;15.20;99.90
30399;DHT22;17195;50.838;7.214;2024-02-16T09:23:26;15.20;99.90
30399;DHT22;17195;50.838;7.214;2024-02-16T09:25:51;15.20;99.90
30399;DHT22;17195;50.838;7.214;2024-02-16T09:28:17;15.30;99.90
30399;DHT22;17195;50.838;7.214;2024-02-16T09:30:46;15.30;99.90
30399;DHT22;17195;50.838;7.214;2024-02-16T09:33:12;15.30;99.90
30399;DHT22;17195;50.838;7.214;2024-02-16T09:35:39;15.30;99.90
30399;DHT22;17195;50.838;7.214;2024-02-16T09:38:05;15.30;99.90
30399;DHT22;17195;50.838;7.214;2024-02-16T09:40:30;15.30;99.90
30399;DHT22;17195;50.838;7.214;2024-02-16T09:42:56;15.30;99.90
30399;DHT22;17195;50.838;7.214;2024-02-16T09:45:21;15.30;99.90
30399;DHT22;17195;50.838;7.214;2024-02-16T09:47:50;15.30;99.90
30399;DHT22;17195;50.838;7.214;2024-02-16T09:50:17;15.20;99.90
30399;DHT22;17195;50.838;7.214;2024-02-16T09:52:47;15.10;99.90
30399;DHT22;17195;50.838;7.214;2024-02-16T09:55:14;15.20;99.90
30399;DHT22;17195;50.838;7.214;2024-02-16T09:57:40;15.20;99.90
30399;DHT22;17195;50.838;7.214;2024-02-16T10:00:06;15.20;99.90
30399;DHT22;17195;50.838;7.214;2024-02-16T10:02:45;15.30;99.90
30399;DHT22;17195;50.838;7.214;2024-02-16T10:07:36;15.30;99.90
30399;DHT22;17195;50.838;7.214;2024-02-16T10:10:02;15.40;99.90
30399;DHT22;17195;50.838;7.214;2024-02-16T10:12:28;15.30;99.90
30399;DHT22;17195;50.838;7.214;2024-02-16T10:14:55;15.30;99.90
30399;DHT22;17195;50.838;7.214;2024-02-16T10:17:20;15.30;99.90
30399;DHT22;17195;50.838;7.214;2024-02-16T10:19:55;15.30;99.90
30399;DHT22;17195;50.838;7.214;2024-02-16T10:22:21;15.20;99.90
30399;DHT22;17195;50.838;7.214;2024-02-16T10:24:48;15.10;99.90
30399;DHT22;17195;50.838;7.214;2024-02-16T10:27:18;15.00;99.90
30399;DHT22;17195;50.838;7.214;2024-02-16T10:29:45;15.00;99.90
30399;DHT22;17195;50.838;7.214;2024-02-16T10:32:12;14.90;99.90
30399;DHT22;17195;50.838;7.214;2024-02-16T10:34:40;14.90;99.90
30399;DHT22;17195;50.838;7.214;2024-02-16T10:37:06;14.90;99.90
30399;DHT22;17195;50.838;7.214;2024-02-16T10:39:32;14.90;99.90
30399;DHT22;17195;50.838;7.214;2024-02-16T10:42:00;14.90;99.90
30399;DHT22;17195;50.838;7.214;2024-02-16T10:44:28;15.00;99.90
30399;DHT22;17195;50.838;7.214;2024-02-16T10:46:55;15.00;99.90
30399;DHT22;17195;50.838;7.214;2024-02-16T10:49:24;15.00;99.90
30399;DHT22;17195;50.838;7.214;2024-02-16T10:51:53;15.00;99.90
30399;DHT22;17195;50.838;7.214;2024-02-16T10:54:23;15.00;99.90
30399;DHT22;17195;50.838;7.214;2024-02-16T10:56:53;15.00;99.90
30399;DHT22;17195;50.838;7.214;2024-02-16T10:59:19;15.10;99.90
30399;DHT22;17195;50.838;7.214;2024-02-16T11:01:45;15.10;99.90
30399;DHT22;17195;50.838;7.214;2024-02-16T11:04:17;15.10;99.90
30399;DHT22;17195;50.838;7.214;2024-02-16T11:09:35;15.00;99.90
30399;DHT22;17195;50.838;7.214;2024-02-16T11:12:03;15.00;99.90
30399;DHT22;17195;50.838;7.214;2024-02-16T11:14:36;14.90;99.90
30399;DHT22;17195;50.838;7.214;2024-02-16T11:17:12;15.00;99.90
30399;DHT22;17195;50.838;7.214;2024-02-16T11:19:44;14.90;99.90
30399;DHT22;17195;50.838;7.214;2024-02-16T11:22:10;14.80;99.90
30399;DHT22;17195;50.838;7.214;2024-02-16T11:24:42;14.80;99.90
30399;DHT22;17195;50.838;7.214;2024-02-16T11:27:09;14.80;99.90
30399;DHT22;17195;50.838;7.214;2024-02-16T11:29:36;14.80;99.90
30399;DHT22;17195;50.838;7.214;2024-02-16T11:32:05;14.80;99.90
30399;DHT22;17195;50.838;7.214;2024-02-16T11:34:32;14.90;99.90
30399;DHT22;17195;50.838;7.214;2024-02-16T11:37:00;15.00;99.90
30399;DHT22;17195;50.838;7.214;2024-02-16T11:39:26;15.10;99.90
30399;DHT22;17195;50.838;7.214;2024-02-16T11:42:06;15.10;99.90
30399;DHT22;17195;50.838;7.214;2024-02-16T11:44:34;15.20;99.90
30399;DHT22;17195;50.838;7.214;2024-02-16T11:47:01;15.20;99.90
30399;DHT22;17195;50.838;7.214;2024-02-16T11:49:28;15.10;99.90
30399;DHT22;17195;50.838;7.214;2024-02-16T11:51:54;15.30;99.90
30399;DHT22;17195;50.838;7.214;2024-02-16T11:54:20;15.30;99.90
30399;DHT22;17195;50.838;7.214;2024-02-16T11:56:46;15.30;99.90
30399;DHT22;17195;50.838;7.214;2024-02-16T11:59:15;15.30;99.90
30399;DHT22;17195;50.838;7.214;2024-02-16T12:01:54;15.30;99.90
30399;DHT22;17195;50.838;7.214;2024-02-16T12:04:27;15.50;99.90
30399;DHT22;17195;50.838;7.214;2024-02-16T12:09:21;15.60;99.90
30399;DHT22;17195;50.838;7.214;2024-02-16T12:11:48;15.70;99.90
30399;DHT22;17195;50.838;7.214;2024-02-16T12:14:18;15.80;99.90
30399;DHT22;17195;50.838;7.214;2024-02-16T12:16:51;15.70;99.90
30399;DHT22;17195;50.838;7.214;2024-02-16T12:19:20;15.70;99.90
30399;DHT22;17195;50.838;7.214;2024-02-16T12:21:51;15.70;99.90
30399;DHT22;17195;50.838;7.214;2024-02-16T12:24:17;15.60;99.90
30399;DHT22;17195;50.838;7.214;2024-02-16T12:26:43;15.60;99.90
30399;DHT22;17195;50.838;7.214;2024-02-16T12:29:09;15.60;99.90
30399;DHT22;17195;50.838;7.214;2024-02-16T12:31:41;15.50;99.90
30399;DHT22;17195;50.838;7.214;2024-02-16T12:34:07;15.40;99.90
30399;DHT22;17195;50.838;7.214;2024-02-16T12:36:36;15.40;99.90
30399;DHT22;17195;50.838;7.214;2024-02-16T12:39:03;15.30;99.90
30399;DHT22;17195;50.838;7.214;2024-02-16T12:41:32;15.30;99.90
30399;DHT22;17195;50.838;7.214;2024-02-16T12:43:58;15.20;99.90
30399;DHT22;17195;50.838;7.214;2024-02-16T12:46:24;15.20;99.90
30399;DHT22;17195;50.838;7.214;2024-02-16T12:48:50;15.10;99.90
30399;DHT22;17195;50.838;7.214;2024-02-16T12:51:16;15.10;99.90
30399;DHT22;17195;50.838;7.214;2024-02-16T12:53:42;15.00;99.90
30399;DHT22;17195;50.838;7.214;2024-02-16T12:56:08;15.00;99.90
30399;DHT22;17195;50.838;7.214;2024-02-16T12:58:35;15.00;99.90
30399;DHT22;17195;50.838;7.214;2024-02-16T13:01:01;15.00;99.90
30399;DHT22;17195;50.838;7.214;2024-02-16T13:03:27;15.00;99.90
30399;DHT22;17195;50.838;7.214;2024-02-16T13:05:53;15.00;99.90
30399;DHT22;17195;50.838;7.214;2024-02-16T13:08:19;15.00;99.90
30399;DHT22;17195;50.838;7.214;2024-02-16T13:10:44;15.00;99.90
30399;DHT22;17195;50.838;7.214;2024-02-16T13:13:10;15.10;99.90
30399;DHT22;17195;50.838;7.214;2024-02-16T13:15:35;15.10;99.90
30399;DHT22;17195;50.838;7.214;2024-02-16T13:18:01;15.10;99.90
30399;DHT22;17195;50.838;7.214;2024-02-16T13:20:27;15.00;99.90
30399;DHT22;17195;50.838;7.214;2024-02-16T13:22:52;15.10;99.90
30399;DHT22;17195;50.838;7.214;2024-02-16T13:25:19;15.10;99.90
30399;DHT22;17195;50.838;7.214;2024-02-16T13:27:45;15.10;99.90
30399;DHT22;17195;50.838;7.214;2024-02-16T13:30:11;15.00;99.90
30399;DHT22;17195;50.838;7.214;2024-02-16T13:32:37;15.00;99.90
30399;DHT22;17195;50.838;7.214;2024-02-16T13:35:06;15.00;99.90
30399;DHT22;17195;50.838;7.214;2024-02-16T13:37:31;14.90;99.90
30399;DHT22;17195;50.838;7.214;2024-02-16T13:39:57;14.90;99.90
30399;DHT22;17195;50.838;7.214;2024-02-16T13:42:23;14.80;99.90
30399;DHT22;17195;50.838;7.214;2024-02-16T13:44:49;14.80;99.90
30399;DHT22;17195;50.838;7.214;2024-02-16T13:47:14;14.70;99.90
30399;DHT22;17195;50.838;7.214;2024-02-16T13:49:40;14.60;99.90
30399;DHT22;17195;50.838;7.214;2024-02-16T13:52:06;14.60;99.90
30399;DHT22;17195;50.838;7.214;2024-02-16T13:54:34;14.50;99.90
30399;DHT22;17195;50.838;7.214;2024-02-16T13:57:00;14.40;99.90
30399;DHT22;17195;50.838;7.214;2024-02-16T13:59:26;14.40;99.90
30399;DHT22;17195;50.838;7.214;2024-02-16T14:01:52;14.40;99.90
30399;DHT22;17195;50.838;7.214;2024-02-16T14:04:18;14.30;99.90
30399;DHT22;17195;50.838;7.214;2024-02-16T14:06:45;14.30;99.90
30399;DHT22;17195;50.838;7.214;2024-02-16T14:09:10;14.30;99.90
30399;DHT22;17195;50.838;7.214;2024-02-16T14:11:39;14.20;99.90
30399;DHT22;17195;50.838;7.214;2024-02-16T14:14:07;14.20;99.90
30399;DHT22;17195;50.838;7.214;2024-02-16T14:16:32;14.20;99.90
30399;DHT22;17195;50.838;7.214;2024-02-16T14:18:58;14.20;99.90
30399;DHT22;17195;50.838;7.214;2024-02-16T14:21:24;14.20;99.90
30399;DHT22;17195;50.838;7.214;2024-02-16T14:23:49;14.20;99.90
30399;DHT22;17195;50.838;7.214;2024-02-16T14:26:15;14.20;99.90
30399;DHT22;17195;50.838;7.214;2024-02-16T14:28:40;14.10;99.90
30399;DHT22;17195;50.838;7.214;2024-02-16T14:31:06;14.20;99.90
30399;DHT22;17195;50.838;7.214;2024-02-16T14:33:32;14.20;99.90
30399;DHT22;17195;50.838;7.214;2024-02-16T14:35:58;14.20;99.90
30399;DHT22;17195;50.838;7.214;2024-02-16T14:38:23;14.20;99.90
30399;DHT22;17195;50.838;7.214;2024-02-16T14:40:49;14.20;99.90
30399;DHT22;17195;50.838;7.214;2024-02-16T14:43:14;14.20;99.90
30399;DHT22;17195;50.838;7.214;2024-02-16T14:45:40;14.10;99.90
30399;DHT22;17195;50.838;7.214;2024-02-16T14:48:06;14.10;99.90
30399;DHT22;17195;50.838;7.214;2024-02-16T14:50:31;14.10;99.90
30399;DHT22;17195;50.838;7.214;2024-02-16T14:52:57;14.10;99.90
30399;DHT22;17195;50.838;7.214;2024-02-16T14:55:23;14.10;99.90
30399;DHT22;17195;50.838;7.214;2024-02-16T14:57:48;14.10;99.90
30399;DHT22;17195;50.838;7.214;2024-02-16T15:00:14;14.10;99.90
30399;DHT22;17195;50.838;7.214;2024-02-16T15:02:40;14.10;99.90
30399;DHT22;17195;50.838;7.214;2024-02-16T15:05:09;14.10;99.90
30399;DHT22;17195;50.838;7.214;2024-02-16T15:07:35;14.10;99.90
30399;DHT22;17195;50.838;7.214;2024-02-16T15:10:01;14.00;99.90
30399;DHT22;17195;50.838;7.214;2024-02-16T15:12:26;14.00;99.90
30399;DHT22;17195;50.838;7.214;2024-02-16T15:14:52;13.90;99.90
30399;DHT22;17195;50.838;7.214;2024-02-16T15:17:18;14.00;99.90
30399;DHT22;17195;50.838;7.214;2024-02-16T15:19:44;14.00;99.90
30399;DHT22;17195;50.838;7.214;2024-02-16T15:22:10;13.90;99.90
30399;DHT22;17195;50.838;7.214;2024-02-16T15:24:36;14.00;99.90
30399;DHT22;17195;50.838;7.214;2024-02-16T15:27:01;14.00;99.90
30399;DHT22;17195;50.838;7.214;2024-02-16T15:29:27;14.00;99.90
30399;DHT22;17195;50.838;7.214;2024-02-16T15:31:53;14.00;99.90